sensor_id;sensor_type;location;lat;lon;timestamp;temperature;humidity
16511;DHT22;8368;48.772;8.754;2023-12-14T00:00:28;4.40;99.90
16511;DHT22;8368;48.772;8.754;2023-12-14T00:02:53;4.40;99.90
16511;DHT22;8368;48.772;8.754;2023-12-14T00:05:19;4.40;99.90
16511;DHT22;8368;48.772;8.754;2023-12-14T00:07:44;4.40;99.90
16511;DHT22;8368;48.772;8.754;2023-12-14T00:10:10;4.40;99.90
16511;DHT22;8368;48.772;8.754;2023-12-14T00:12:37;4.50;99.90
16511;DHT22;8368;48.772;8.754;2023-12-14T00:15:03;4.50;99.90
16511;DHT22;8368;48.772;8.754;2023-12-14T00:17:29;4.50;99.90
16511;DHT22;8368;48.772;8.754;2023-12-14T00:19:54;4.50;99.90
16511;DHT22;8368;48.772;8.754;2023-12-14T00:22:20;4.50;99.90
16511;DHT22;8368;48.772;8.754;2023-12-14T00:24:45;4.50;99.90
16511;DHT22;8368;48.772;8.754;2023-12-14T00:27:11;4.50;99.90
16511;DHT22;8368;48.772;8.754;2023-12-14T00:29:36;4.50;99.90
16511;DHT22;8368;48.772;8.754;2023-12-14T00:32:02;4.60;99.90
16511;DHT22;8368;48.772;8.754;2023-12-14T00:34:28;4.50;99.90
16511;DHT22;8368;48.772;8.754;2023-12-14T00:36:53;4.50;99.90
16511;DHT22;8368;48.772;8.754;2023-12-14T00:39:19;4.50;99.90
16511;DHT22;8368;48.772;8.754;2023-12-14T00:41:44;4.50;99.90
16511;DHT22;8368;48.772;8.754;2023-12-14T00:44:09;4.50;99.90
16511;DHT22;8368;48.772;8.754;2023-12-14T00:46:35;4.40;99.90
16511;DHT22;8368;48.772;8.754;2023-12-14T00:49:01;4.40;99.90
16511;DHT22;8368;48.772;8.754;2023-12-14T00:51:27;4.30;99.90
16511;DHT22;8368;48.772;8.754;2023-12-14T00:53:53;4.30;99.90
16511;DHT22;8368;48.772;8.754;2023-12-14T00:56:18;4.20;99.90
16511;DHT22;8368;48.772;8.754;2023-12-14T00:58:44;4.20;99.90
16511;DHT22;8368;48.772;8.754;2023-12-14T01:01:09;4.20;99.90
16511;DHT22;8368;48.772;8.754;2023-12-14T01:03:35;4.20;99.90
16511;DHT22;8368;48.772;8.754;2023-12-14T01:06:00;4.20;99.90
16511;DHT22;8368;48.772;8.754;2023-12-14T01:08:26;4.20;99.90
16511;DHT22;8368;48.772;8.754;2023-12-14T01:10:51;4.20;99.90
16511;DHT22;8368;48.772;8.754;2023-12-14T01:13:17;4.20;99.90
16511;DHT22;8368;48.772;8.754;2023-12-14T01:15:42;4.30;99.90
16511;DHT22;8368;48.772;8.754;2023-12-14T01:18:08;4.40;99.90
16511;DHT22;8368;48.772;8.754;2023-12-14T01:20:33;4.40;99.90
16511;DHT22;8368;48.772;8.754;2023-12-14T01:22:59;4.50;99.90
16511;DHT22;8368;48.772;8.754;2023-12-14T01:25:24;4.50;99.90
16511;DHT22;8368;48.772;8.754;2023-12-14T01:27:50;4.60;99.90
16511;DHT22;8368;48.772;8.754;2023-12-14T01:30:15;4.60;99.90
16511;DHT22;8368;48.772;8.754;2023-12-14T01:32:41;4.60;99.90
16511;DHT22;8368;48.772;8.754;2023-12-14T01:35:07;4.60;99.90
16511;DHT22;8368;48.772;8.754;2023-12-14T01:37:32;4.70;99.90
16511;DHT22;8368;48.772;8.754;2023-12-14T01:39:58;4.70;99.90
16511;DHT22;8368;48.772;8.754;2023-12-14T01:42:23;4.70;99.90
16511;DHT22;8368;48.772;8.754;2023-12-14T01:44:49;4.80;99.90
16511;DHT22;8368;48.772;8.754;2023-12-14T01:47:14;4.70;99.90
16511;DHT22;8368;48.772;8.754;2023-12-14T01:49:40;4.80;99.90
16511;DHT22;8368;48.772;8.754;2023-12-14T01:52:06;4.80;99.90
16511;DHT22;8368;48.772;8.754;2023-12-14T01:54:32;4.80;99.90
16511;DHT22;8368;48.772;8.754;2023-12-14T01:56:58;4.80;99.90
16511;DHT22;8368;48.772;8.754;2023-12-14T01:59:24;4.80;99.90
16511;DHT22;8368;48.772;8.754;2023-12-14T02:01:54;4.80;99.90
16511;DHT22;8368;48.772;8.754;2023-12-14T02:04:22;4.80;99.90
16511;DHT22;8368;48.772;8.754;2023-12-14T02:06:48;4.80;99.90
16511;DHT22;8368;48.772;8.754;2023-12-14T02:09:13;4.80;99.90
16511;DHT22;8368;48.772;8.754;2023-12-14T02:11:39;4.90;99.90
16511;DHT22;8368;48.772;8.754;2023-12-14T02:14:09;4.80;99.90
16511;DHT22;8368;48.772;8.754;2023-12-14T02:16:35;4.80;99.90
16511;DHT22;8368;48.772;8.754;2023-12-14T02:19:04;4.80;99.90
16511;DHT22;8368;48.772;8.754;2023-12-14T02:21:29;4.70;99.90
16511;DHT22;8368;48.772;8.754;2023-12-14T02:23:55;4.80;99.90
16511;DHT22;8368;48.772;8.754;2023-12-14T02:26:20;4.70;99.90
16511;DHT22;8368;48.772;8.754;2023-12-14T02:28:46;4.70;99.90
16511;DHT22;8368;48.772;8.754;2023-12-14T02:31:11;4.70;99.90
16511;DHT22;8368;48.772;8.754;2023-12-14T02:33:37;4.60;99.90
16511;DHT22;8368;48.772;8.754;2023-12-14T02:36:02;4.60;99.90
16511;DHT22;8368;48.772;8.754;2023-12-14T02:38:29;4.50;99.90
16511;DHT22;8368;48.772;8.754;2023-12-14T02:40:55;4.50;99.90
16511;DHT22;8368;48.772;8.754;2023-12-14T02:43:20;4.40;99.90
16511;DHT22;8368;48.772;8.754;2023-12-14T02:45:46;4.40;99.90
16511;DHT22;8368;48.772;8.754;2023-12-14T02:48:12;4.40;99.90
16511;DHT22;8368;48.772;8.754;2023-12-14T02:50:37;4.40;99.90
16511;DHT22;8368;48.772;8.754;2023-12-14T02:53:03;4.40;99.90
16511;DHT22;8368;48.772;8.754;2023-12-14T02:55:28;4.40;99.90
16511;DHT22;8368;48.772;8.754;2023-12-14T02:57:54;4.40;99.90
16511;DHT22;8368;48.772;8.754;2023-12-14T03:00:20;4.40;99.90
16511;DHT22;8368;48.772;8.754;2023-12-14T03:02:45;4.40;99.90
16511;DHT22;8368;48.772;8.754;2023-12-14T03:05:11;4.40;99.90
16511;DHT22;8368;48.772;8.754;2023-12-14T03:07:36;4.50;99.90
16511;DHT22;8368;48.772;8.754;2023-12-14T03:10:03;4.50;99.90
16511;DHT22;8368;48.772;8.754;2023-12-14T03:12:29;4.50;99.90
16511;DHT22;8368;48.772;8.754;2023-12-14T03:14:54;4.50;99.90
16511;DHT22;8368;48.772;8.754;2023-12-14T03:17:20;4.50;99.90
16511;DHT22;8368;48.772;8.754;2023-12-14T03:19:45;4.60;99.90
16511;DHT22;8368;48.772;8.754;2023-12-14T03:22:11;4.60;99.90
16511;DHT22;8368;48.772;8.754;2023-12-14T03:24:37;4.60;99.90
16511;DHT22;8368;48.772;8.754;2023-12-14T03:27:03;4.60;99.90
16511;DHT22;8368;48.772;8.754;2023-12-14T03:29:29;4.70;99.90
16511;DHT22;8368;48.772;8.754;2023-12-14T03:31:58;4.70;99.90
16511;DHT22;8368;48.772;8.754;2023-12-14T03:34:24;4.70;99.90
16511;DHT22;8368;48.772;8.754;2023-12-14T03:36:50;4.70;99.90
16511;DHT22;8368;48.772;8.754;2023-12-14T03:39:16;4.70;99.90
16511;DHT22;8368;48.772;8.754;2023-12-14T03:41:44;4.70;99.90
16511;DHT22;8368;48.772;8.754;2023-12-14T03:44:10;4.70;99.90
16511;DHT22;8368;48.772;8.754;2023-12-14T03:46:36;4.70;99.90
16511;DHT22;8368;48.772;8.754;2023-12-14T03:49:02;4.70;99.90
16511;DHT22;8368;48.772;8.754;2023-12-14T03:51:28;4.70;99.90
16511;DHT22;8368;48.772;8.754;2023-12-14T03:53:53;4.70;99.90
16511;DHT22;8368;48.772;8.754;2023-12-14T03:56:19;4.70;99.90
16511;DHT22;8368;48.772;8.754;2023-12-14T03:58:45;4.70;99.90
16511;DHT22;8368;48.772;8.754;2023-12-14T04:01:18;4.70;99.90
16511;DHT22;8368;48.772;8.754;2023-12-14T04:03:44;4.70;99.90
16511;DHT22;8368;48.772;8.754;2023-12-14T04:06:10;4.80;99.90
16511;DHT22;8368;48.772;8.754;2023-12-14T04:08:36;4.70;99.90
16511;DHT22;8368;48.772;8.754;2023-12-14T04:11:01;4.70;99.90
16511;DHT22;8368;48.772;8.754;2023-12-14T04:13:27;4.70;99.90
16511;DHT22;8368;48.772;8.754;2023-12-14T04:15:52;4.70;99.90
16511;DHT22;8368;48.772;8.754;2023-12-14T04:18:18;4.70;99.90
16511;DHT22;8368;48.772;8.754;2023-12-14T04:20:43;4.70;99.90
16511;DHT22;8368;48.772;8.754;2023-12-14T04:23:09;4.70;99.90
16511;DHT22;8368;48.772;8.754;2023-12-14T04:25:34;4.70;99.90
16511;DHT22;8368;48.772;8.754;2023-12-14T04:28:00;4.70;99.90
16511;DHT22;8368;48.772;8.754;2023-12-14T04:30:26;4.70;99.90
16511;DHT22;8368;48.772;8.754;2023-12-14T04:32:51;4.70;99.90
16511;DHT22;8368;48.772;8.754;2023-12-14T04:35:17;4.70;99.90
16511;DHT22;8368;48.772;8.754;2023-12-14T04:37:42;4.70;99.90
16511;DHT22;8368;48.772;8.754;2023-12-14T04:40:08;4.80;99.90
16511;DHT22;8368;48.772;8.754;2023-12-14T04:42:35;4.80;99.90
16511;DHT22;8368;48.772;8.754;2023-12-14T04:45:01;4.80;99.90
16511;DHT22;8368;48.772;8.754;2023-12-14T04:47:26;4.80;99.90
16511;DHT22;8368;48.772;8.754;2023-12-14T04:49:52;4.90;99.90
16511;DHT22;8368;48.772;8.754;2023-12-14T04:52:17;4.90;99.90
16511;DHT22;8368;48.772;8.754;2023-12-14T04:54:43;4.90;99.90
16511;DHT22;8368;48.772;8.754;2023-12-14T04:57:08;4.90;99.90
16511;DHT22;8368;48.772;8.754;2023-12-14T04:59:34;4.90;99.90
16511;DHT22;8368;48.772;8.754;2023-12-14T05:02:00;5.00;99.90
16511;DHT22;8368;48.772;8.754;2023-12-14T05:04:25;5.00;99.90
16511;DHT22;8368;48.772;8.754;2023-12-14T05:06:51;5.00;99.90
16511;DHT22;8368;48.772;8.754;2023-12-14T05:09:16;4.90;99.90
16511;DHT22;8368;48.772;8.754;2023-12-14T05:11:42;5.00;99.90
16511;DHT22;8368;48.772;8.754;2023-12-14T05:14:08;5.00;99.90
16511;DHT22;8368;48.772;8.754;2023-12-14T05:16:34;5.00;99.90
16511;DHT22;8368;48.772;8.754;2023-12-14T05:18:59;5.00;99.90
16511;DHT22;8368;48.772;8.754;2023-12-14T05:21:25;5.00;99.90
16511;DHT22;8368;48.772;8.754;2023-12-14T05:23:50;5.00;99.90
16511;DHT22;8368;48.772;8.754;2023-12-14T05:26:16;5.00;99.90
16511;DHT22;8368;48.772;8.754;2023-12-14T05:28:42;5.10;99.90
16511;DHT22;8368;48.772;8.754;2023-12-14T05:31:07;5.10;99.90
16511;DHT22;8368;48.772;8.754;2023-12-14T05:33:36;5.10;99.90
16511;DHT22;8368;48.772;8.754;2023-12-14T05:36:02;5.10;99.90
16511;DHT22;8368;48.772;8.754;2023-12-14T05:38:31;5.10;99.90
16511;DHT22;8368;48.772;8.754;2023-12-14T05:40:56;5.20;99.90
16511;DHT22;8368;48.772;8.754;2023-12-14T05:43:22;5.20;99.90
16511;DHT22;8368;48.772;8.754;2023-12-14T05:45:47;5.20;99.90
16511;DHT22;8368;48.772;8.754;2023-12-14T05:48:13;5.10;99.90
16511;DHT22;8368;48.772;8.754;2023-12-14T05:50:39;5.20;99.90
16511;DHT22;8368;48.772;8.754;2023-12-14T05:53:04;5.20;99.90
16511;DHT22;8368;48.772;8.754;2023-12-14T05:55:30;5.20;99.90
16511;DHT22;8368;48.772;8.754;2023-12-14T05:57:55;5.20;99.90
16511;DHT22;8368;48.772;8.754;2023-12-14T06:00:22;5.10;99.90
16511;DHT22;8368;48.772;8.754;2023-12-14T06:02:47;5.20;99.90
16511;DHT22;8368;48.772;8.754;2023-12-14T06:05:14;5.10;99.90
16511;DHT22;8368;48.772;8.754;2023-12-14T06:07:39;5.20;99.90
16511;DHT22;8368;48.772;8.754;2023-12-14T06:10:05;5.20;99.90
16511;DHT22;8368;48.772;8.754;2023-12-14T06:12:31;5.20;99.90
16511;DHT22;8368;48.772;8.754;2023-12-14T06:14:57;5.20;99.90
16511;DHT22;8368;48.772;8.754;2023-12-14T06:17:22;5.20;99.90
16511;DHT22;8368;48.772;8.754;2023-12-14T06:19:48;5.20;99.90
16511;DHT22;8368;48.772;8.754;2023-12-14T06:22:13;5.20;99.90
16511;DHT22;8368;48.772;8.754;2023-12-14T06:24:39;5.20;99.90
16511;DHT22;8368;48.772;8.754;2023-12-14T06:27:04;5.30;99.90
16511;DHT22;8368;48.772;8.754;2023-12-14T06:29:30;5.20;99.90
16511;DHT22;8368;48.772;8.754;2023-12-14T06:31:56;5.20;99.90
16511;DHT22;8368;48.772;8.754;2023-12-14T06:34:22;5.20;99.90
16511;DHT22;8368;48.772;8.754;2023-12-14T06:36:47;5.30;99.90
16511;DHT22;8368;48.772;8.754;2023-12-14T06:39:13;5.30;99.90
16511;DHT22;8368;48.772;8.754;2023-12-14T06:41:38;5.30;99.90
16511;DHT22;8368;48.772;8.754;2023-12-14T06:44:04;5.30;99.90
16511;DHT22;8368;48.772;8.754;2023-12-14T06:46:30;5.30;99.90
16511;DHT22;8368;48.772;8.754;2023-12-14T06:48:56;5.30;99.90
16511;DHT22;8368;48.772;8.754;2023-12-14T06:51:22;5.30;99.90
16511;DHT22;8368;48.772;8.754;2023-12-14T06:53:47;5.30;99.90
16511;DHT22;8368;48.772;8.754;2023-12-14T06:56:13;5.30;99.90
16511;DHT22;8368;48.772;8.754;2023-12-14T06:58:43;5.30;99.90
16511;DHT22;8368;48.772;8.754;2023-12-14T07:01:13;5.30;99.90
16511;DHT22;8368;48.772;8.754;2023-12-14T07:03:40;5.30;99.90
16511;DHT22;8368;48.772;8.754;2023-12-14T07:06:07;5.30;99.90
16511;DHT22;8368;48.772;8.754;2023-12-14T07:08:32;5.40;99.90
16511;DHT22;8368;48.772;8.754;2023-12-14T07:10:58;5.40;99.90
16511;DHT22;8368;48.772;8.754;2023-12-14T07:13:23;5.40;99.90
16511;DHT22;8368;48.772;8.754;2023-12-14T07:15:49;5.40;99.90
16511;DHT22;8368;48.772;8.754;2023-12-14T07:18:14;5.50;99.90
16511;DHT22;8368;48.772;8.754;2023-12-14T07:20:40;5.50;99.90
16511;DHT22;8368;48.772;8.754;2023-12-14T07:23:05;5.50;99.90
16511;DHT22;8368;48.772;8.754;2023-12-14T07:25:31;5.50;99.90
16511;DHT22;8368;48.772;8.754;2023-12-14T07:27:56;5.50;99.90
16511;DHT22;8368;48.772;8.754;2023-12-14T07:30:22;5.50;99.90
16511;DHT22;8368;48.772;8.754;2023-12-14T07:32:48;5.50;99.90
16511;DHT22;8368;48.772;8.754;2023-12-14T07:35:13;5.50;99.90
16511;DHT22;8368;48.772;8.754;2023-12-14T07:37:39;5.60;99.90
16511;DHT22;8368;48.772;8.754;2023-12-14T07:40:05;5.60;99.90
16511;DHT22;8368;48.772;8.754;2023-12-14T07:42:30;5.50;99.90
16511;DHT22;8368;48.772;8.754;2023-12-14T07:44:57;5.60;99.90
16511;DHT22;8368;48.772;8.754;2023-12-14T07:47:22;5.60;99.90
16511;DHT22;8368;48.772;8.754;2023-12-14T07:49:48;5.60;99.90
16511;DHT22;8368;48.772;8.754;2023-12-14T07:52:14;5.60;99.90
16511;DHT22;8368;48.772;8.754;2023-12-14T07:54:39;5.50;99.90
16511;DHT22;8368;48.772;8.754;2023-12-14T07:57:05;5.60;99.90
16511;DHT22;8368;48.772;8.754;2023-12-14T07:59:31;5.50;99.90
16511;DHT22;8368;48.772;8.754;2023-12-14T08:01:56;5.50;99.90
16511;DHT22;8368;48.772;8.754;2023-12-14T08:04:22;5.50;99.90
16511;DHT22;8368;48.772;8.754;2023-12-14T08:06:47;5.50;99.90
16511;DHT22;8368;48.772;8.754;2023-12-14T08:09:13;5.50;99.90
16511;DHT22;8368;48.772;8.754;2023-12-14T08:11:38;5.50;99.90
16511;DHT22;8368;48.772;8.754;2023-12-14T08:14:04;5.60;99.90
16511;DHT22;8368;48.772;8.754;2023-12-14T08:16:29;5.60;99.90
16511;DHT22;8368;48.772;8.754;2023-12-14T08:18:55;5.70;99.90
16511;DHT22;8368;48.772;8.754;2023-12-14T08:21:20;5.70;99.90
16511;DHT22;8368;48.772;8.754;2023-12-14T08:23:46;5.70;99.90
16511;DHT22;8368;48.772;8.754;2023-12-14T08:26:12;5.70;99.90
16511;DHT22;8368;48.772;8.754;2023-12-14T08:28:39;5.70;99.90
16511;DHT22;8368;48.772;8.754;2023-12-14T08:31:04;5.70;99.90
16511;DHT22;8368;48.772;8.754;2023-12-14T08:33:30;5.70;99.90
16511;DHT22;8368;48.772;8.754;2023-12-14T08:35:56;5.80;99.90
16511;DHT22;8368;48.772;8.754;2023-12-14T08:38:22;5.80;99.90
16511;DHT22;8368;48.772;8.754;2023-12-14T08:40:47;5.80;99.90
16511;DHT22;8368;48.772;8.754;2023-12-14T08:43:13;5.80;99.90
16511;DHT22;8368;48.772;8.754;2023-12-14T08:45:38;5.80;99.90
16511;DHT22;8368;48.772;8.754;2023-12-14T08:48:04;5.80;99.90
16511;DHT22;8368;48.772;8.754;2023-12-14T08:50:30;5.80;99.90
16511;DHT22;8368;48.772;8.754;2023-12-14T08:52:55;5.90;99.90
16511;DHT22;8368;48.772;8.754;2023-12-14T08:55:24;5.90;99.90
16511;DHT22;8368;48.772;8.754;2023-12-14T08:57:50;6.00;99.90
16511;DHT22;8368;48.772;8.754;2023-12-14T09:00:16;6.00;99.90
16511;DHT22;8368;48.772;8.754;2023-12-14T09:02:43;6.00;99.90
16511;DHT22;8368;48.772;8.754;2023-12-14T09:05:09;6.00;99.90
16511;DHT22;8368;48.772;8.754;2023-12-14T09:07:34;6.10;99.90
16511;DHT22;8368;48.772;8.754;2023-12-14T09:10:00;6.10;99.90
16511;DHT22;8368;48.772;8.754;2023-12-14T09:12:25;6.10;99.90
16511;DHT22;8368;48.772;8.754;2023-12-14T09:14:51;6.20;99.90
16511;DHT22;8368;48.772;8.754;2023-12-14T09:17:16;6.20;99.90
16511;DHT22;8368;48.772;8.754;2023-12-14T09:19:42;6.30;99.90
16511;DHT22;8368;48.772;8.754;2023-12-14T09:22:08;6.30;99.90
16511;DHT22;8368;48.772;8.754;2023-12-14T09:24:33;6.30;99.90
16511;DHT22;8368;48.772;8.754;2023-12-14T09:26:59;6.30;99.90
16511;DHT22;8368;48.772;8.754;2023-12-14T09:29:24;6.40;99.90
16511;DHT22;8368;48.772;8.754;2023-12-14T09:31:50;6.40;99.90
16511;DHT22;8368;48.772;8.754;2023-12-14T09:34:15;6.40;99.90
16511;DHT22;8368;48.772;8.754;2023-12-14T09:36:41;6.40;99.90
16511;DHT22;8368;48.772;8.754;2023-12-14T09:39:07;6.50;99.90
16511;DHT22;8368;48.772;8.754;2023-12-14T09:41:36;6.60;99.90
16511;DHT22;8368;48.772;8.754;2023-12-14T09:44:04;6.60;99.90
16511;DHT22;8368;48.772;8.754;2023-12-14T09:46:30;6.60;99.90
16511;DHT22;8368;48.772;8.754;2023-12-14T09:48:57;6.70;99.90
16511;DHT22;8368;48.772;8.754;2023-12-14T09:51:25;6.70;99.90
16511;DHT22;8368;48.772;8.754;2023-12-14T09:53:52;6.60;99.90
16511;DHT22;8368;48.772;8.754;2023-12-14T09:56:26;6.60;99.90
16511;DHT22;8368;48.772;8.754;2023-12-14T09:58:52;6.60;99.90
16511;DHT22;8368;48.772;8.754;2023-12-14T10:01:25;6.60;99.90
16511;DHT22;8368;48.772;8.754;2023-12-14T10:04:08;6.60;99.90
16511;DHT22;8368;48.772;8.754;2023-12-14T10:06:34;6.60;99.90
16511;DHT22;8368;48.772;8.754;2023-12-14T10:08:59;6.60;99.90
16511;DHT22;8368;48.772;8.754;2023-12-14T10:11:25;6.70;99.90
16511;DHT22;8368;48.772;8.754;2023-12-14T10:13:50;6.70;99.90
16511;DHT22;8368;48.772;8.754;2023-12-14T10:16:32;6.70;99.90
16511;DHT22;8368;48.772;8.754;2023-12-14T10:18:59;6.80;99.90
16511;DHT22;8368;48.772;8.754;2023-12-14T10:21:26;6.80;99.90
16511;DHT22;8368;48.772;8.754;2023-12-14T10:23:52;6.80;99.90
16511;DHT22;8368;48.772;8.754;2023-12-14T10:26:22;6.90;99.90
16511;DHT22;8368;48.772;8.754;2023-12-14T10:28:49;7.00;99.90
16511;DHT22;8368;48.772;8.754;2023-12-14T10:31:15;7.00;99.90
16511;DHT22;8368;48.772;8.754;2023-12-14T10:33:40;7.10;99.90
16511;DHT22;8368;48.772;8.754;2023-12-14T10:36:07;7.10;99.90
16511;DHT22;8368;48.772;8.754;2023-12-14T10:38:34;7.20;99.90
16511;DHT22;8368;48.772;8.754;2023-12-14T10:41:02;7.20;99.90
16511;DHT22;8368;48.772;8.754;2023-12-14T10:43:28;7.20;99.90
16511;DHT22;8368;48.772;8.754;2023-12-14T10:45:55;7.10;99.90
16511;DHT22;8368;48.772;8.754;2023-12-14T10:48:21;7.10;99.90
16511;DHT22;8368;48.772;8.754;2023-12-14T10:50:48;7.10;99.90
16511;DHT22;8368;48.772;8.754;2023-12-14T10:53:16;7.10;99.90
16511;DHT22;8368;48.772;8.754;2023-12-14T10:55:44;7.10;99.90
16511;DHT22;8368;48.772;8.754;2023-12-14T10:58:10;7.10;99.90
16511;DHT22;8368;48.772;8.754;2023-12-14T11:00:37;7.10;99.90
16511;DHT22;8368;48.772;8.754;2023-12-14T11:03:04;7.00;99.90
16511;DHT22;8368;48.772;8.754;2023-12-14T11:05:34;7.00;99.90
16511;DHT22;8368;48.772;8.754;2023-12-14T11:08:06;7.00;99.90
16511;DHT22;8368;48.772;8.754;2023-12-14T11:10:40;7.00;99.90
16511;DHT22;8368;48.772;8.754;2023-12-14T11:13:08;7.00;99.90
16511;DHT22;8368;48.772;8.754;2023-12-14T11:15:37;7.10;99.90
16511;DHT22;8368;48.772;8.754;2023-12-14T11:21:02;7.20;99.90
16511;DHT22;8368;48.772;8.754;2023-12-14T11:23:32;7.30;99.90
16511;DHT22;8368;48.772;8.754;2023-12-14T11:26:00;7.40;99.90
16511;DHT22;8368;48.772;8.754;2023-12-14T11:28:30;7.40;99.90
16511;DHT22;8368;48.772;8.754;2023-12-14T11:30:56;7.50;99.90
16511;DHT22;8368;48.772;8.754;2023-12-14T11:33:22;7.40;99.90
16511;DHT22;8368;48.772;8.754;2023-12-14T11:35:47;7.50;99.90
16511;DHT22;8368;48.772;8.754;2023-12-14T11:38:13;7.50;99.90
16511;DHT22;8368;48.772;8.754;2023-12-14T11:40:39;7.60;99.90
16511;DHT22;8368;48.772;8.754;2023-12-14T11:43:06;7.60;99.90
16511;DHT22;8368;48.772;8.754;2023-12-14T11:45:34;7.50;99.90
16511;DHT22;8368;48.772;8.754;2023-12-14T11:47:59;7.50;99.90
16511;DHT22;8368;48.772;8.754;2023-12-14T11:50:27;7.50;99.90
16511;DHT22;8368;48.772;8.754;2023-12-14T11:52:52;7.50;99.90
16511;DHT22;8368;48.772;8.754;2023-12-14T11:55:21;7.50;99.90
16511;DHT22;8368;48.772;8.754;2023-12-14T11:57:47;7.40;99.90
16511;DHT22;8368;48.772;8.754;2023-12-14T12:00:13;7.30;99.90
16511;DHT22;8368;48.772;8.754;2023-12-14T12:02:39;7.30;99.90
16511;DHT22;8368;48.772;8.754;2023-12-14T12:05:06;7.20;99.90
16511;DHT22;8368;48.772;8.754;2023-12-14T12:07:32;7.20;99.90
16511;DHT22;8368;48.772;8.754;2023-12-14T12:09:59;7.10;99.90
16511;DHT22;8368;48.772;8.754;2023-12-14T12:12:25;7.10;99.90
16511;DHT22;8368;48.772;8.754;2023-12-14T12:14:50;7.10;99.90
16511;DHT22;8368;48.772;8.754;2023-12-14T12:17:18;7.20;99.90
16511;DHT22;8368;48.772;8.754;2023-12-14T12:19:45;7.20;99.90
16511;DHT22;8368;48.772;8.754;2023-12-14T12:22:11;7.20;99.90
16511;DHT22;8368;48.772;8.754;2023-12-14T12:24:36;7.30;99.90
16511;DHT22;8368;48.772;8.754;2023-12-14T12:27:03;7.30;99.90
16511;DHT22;8368;48.772;8.754;2023-12-14T12:29:30;7.30;99.90
16511;DHT22;8368;48.772;8.754;2023-12-14T12:31:56;7.30;99.90
16511;DHT22;8368;48.772;8.754;2023-12-14T12:34:21;7.40;99.90
16511;DHT22;8368;48.772;8.754;2023-12-14T12:36:47;7.40;99.90
16511;DHT22;8368;48.772;8.754;2023-12-14T12:39:13;7.30;99.90
16511;DHT22;8368;48.772;8.754;2023-12-14T12:41:38;7.40;99.90
16511;DHT22;8368;48.772;8.754;2023-12-14T12:44:04;7.30;99.90
16511;DHT22;8368;48.772;8.754;2023-12-14T12:46:37;7.30;99.90
16511;DHT22;8368;48.772;8.754;2023-12-14T12:49:04;7.20;99.90
16511;DHT22;8368;48.772;8.754;2023-12-14T12:51:31;7.20;99.90
16511;DHT22;8368;48.772;8.754;2023-12-14T12:53:58;7.20;99.90
16511;DHT22;8368;48.772;8.754;2023-12-14T12:56:25;7.10;99.90
16511;DHT22;8368;48.772;8.754;2023-12-14T12:58:51;7.00;99.90
16511;DHT22;8368;48.772;8.754;2023-12-14T13:01:22;6.90;99.90
16511;DHT22;8368;48.772;8.754;2023-12-14T13:03:54;6.90;99.90
16511;DHT22;8368;48.772;8.754;2023-12-14T13:06:21;6.80;99.90
16511;DHT22;8368;48.772;8.754;2023-12-14T13:08:46;6.70;99.90
16511;DHT22;8368;48.772;8.754;2023-12-14T13:11:12;6.70;99.90
16511;DHT22;8368;48.772;8.754;2023-12-14T13:13:37;6.70;99.90
16511;DHT22;8368;48.772;8.754;2023-12-14T13:16:03;6.70;99.90
16511;DHT22;8368;48.772;8.754;2023-12-14T13:18:29;6.70;99.90
16511;DHT22;8368;48.772;8.754;2023-12-14T13:20:54;6.80;99.90
16511;DHT22;8368;48.772;8.754;2023-12-14T13:23:20;6.80;99.90
16511;DHT22;8368;48.772;8.754;2023-12-14T13:25:45;6.80;99.90
16511;DHT22;8368;48.772;8.754;2023-12-14T13:28:11;6.80;99.90
16511;DHT22;8368;48.772;8.754;2023-12-14T13:30:37;6.70;99.90
16511;DHT22;8368;48.772;8.754;2023-12-14T13:33:03;6.70;99.90
16511;DHT22;8368;48.772;8.754;2023-12-14T13:35:29;6.60;99.90
16511;DHT22;8368;48.772;8.754;2023-12-14T13:37:55;6.60;99.90
16511;DHT22;8368;48.772;8.754;2023-12-14T13:40:20;6.60;99.90
16511;DHT22;8368;48.772;8.754;2023-12-14T13:42:46;6.60;99.90
16511;DHT22;8368;48.772;8.754;2023-12-14T13:45:11;6.60;99.90
16511;DHT22;8368;48.772;8.754;2023-12-14T13:47:37;6.60;99.90
16511;DHT22;8368;48.772;8.754;2023-12-14T13:50:02;6.60;99.90
16511;DHT22;8368;48.772;8.754;2023-12-14T13:52:29;6.60;99.90
16511;DHT22;8368;48.772;8.754;2023-12-14T13:54:55;6.70;99.90
16511;DHT22;8368;48.772;8.754;2023-12-14T13:57:22;6.60;99.90
16511;DHT22;8368;48.772;8.754;2023-12-14T13:59:47;6.50;99.90
16511;DHT22;8368;48.772;8.754;2023-12-14T14:02:13;6.50;99.90
16511;DHT22;8368;48.772;8.754;2023-12-14T14:04:39;6.50;99.90
16511;DHT22;8368;48.772;8.754;2023-12-14T14:07:04;6.50;99.90
16511;DHT22;8368;48.772;8.754;2023-12-14T14:09:30;6.50;99.90
16511;DHT22;8368;48.772;8.754;2023-12-14T14:11:55;6.60;99.90
16511;DHT22;8368;48.772;8.754;2023-12-14T14:14:21;6.60;99.90
16511;DHT22;8368;48.772;8.754;2023-12-14T14:16:48;6.50;99.90
16511;DHT22;8368;48.772;8.754;2023-12-14T14:19:14;6.50;99.90
16511;DHT22;8368;48.772;8.754;2023-12-14T14:21:40;6.40;99.90
16511;DHT22;8368;48.772;8.754;2023-12-14T14:24:06;6.40;99.90
16511;DHT22;8368;48.772;8.754;2023-12-14T14:26:31;6.40;99.90
16511;DHT22;8368;48.772;8.754;2023-12-14T14:28:57;6.30;99.90
16511;DHT22;8368;48.772;8.754;2023-12-14T14:31:27;6.30;99.90
16511;DHT22;8368;48.772;8.754;2023-12-14T14:33:59;6.30;99.90
16511;DHT22;8368;48.772;8.754;2023-12-14T14:36:28;6.30;99.90
16511;DHT22;8368;48.772;8.754;2023-12-14T14:38:54;6.30;99.90
16511;DHT22;8368;48.772;8.754;2023-12-14T14:41:20;6.20;99.90
16511;DHT22;8368;48.772;8.754;2023-12-14T14:43:46;6.20;99.90
16511;DHT22;8368;48.772;8.754;2023-12-14T14:46:12;6.20;99.90
16511;DHT22;8368;48.772;8.754;2023-12-14T14:48:37;6.20;99.90
16511;DHT22;8368;48.772;8.754;2023-12-14T14:51:04;6.20;99.90
16511;DHT22;8368;48.772;8.754;2023-12-14T14:53:29;6.20;99.90
16511;DHT22;8368;48.772;8.754;2023-12-14T14:55:55;6.20;99.90
16511;DHT22;8368;48.772;8.754;2023-12-14T14:58:22;6.10;99.90
16511;DHT22;8368;48.772;8.754;2023-12-14T15:00:47;6.10;99.90
16511;DHT22;8368;48.772;8.754;2023-12-14T15:03:13;6.10;99.90
16511;DHT22;8368;48.772;8.754;2023-12-14T15:05:39;6.10;99.90
16511;DHT22;8368;48.772;8.754;2023-12-14T15:08:05;6.10;99.90
16511;DHT22;8368;48.772;8.754;2023-12-14T15:10:35;6.10;99.90
16511;DHT22;8368;48.772;8.754;2023-12-14T15:13:00;6.00;99.90
16511;DHT22;8368;48.772;8.754;2023-12-14T15:15:26;6.00;99.90
16511;DHT22;8368;48.772;8.754;2023-12-14T15:17:52;6.00;99.90
16511;DHT22;8368;48.772;8.754;2023-12-14T15:20:17;6.00;99.90
16511;DHT22;8368;48.772;8.754;2023-12-14T15:22:43;6.00;99.90
16511;DHT22;8368;48.772;8.754;2023-12-14T15:25:09;6.00;99.90
16511;DHT22;8368;48.772;8.754;2023-12-14T15:27:34;6.00;99.90
16511;DHT22;8368;48.772;8.754;2023-12-14T15:30:00;6.00;99.90
16511;DHT22;8368;48.772;8.754;2023-12-14T15:32:26;6.00;99.90
16511;DHT22;8368;48.772;8.754;2023-12-14T15:34:51;5.90;99.90
16511;DHT22;8368;48.772;8.754;2023-12-14T15:37:17;5.90;99.90
16511;DHT22;8368;48.772;8.754;2023-12-14T15:39:43;5.90;99.90
16511;DHT22;8368;48.772;8.754;2023-12-14T15:42:14;5.90;99.90
16511;DHT22;8368;48.772;8.754;2023-12-14T15:44:40;5.80;99.90
16511;DHT22;8368;48.772;8.754;2023-12-14T15:47:06;5.80;99.90
16511;DHT22;8368;48.772;8.754;2023-12-14T15:49:31;5.90;99.90
16511;DHT22;8368;48.772;8.754;2023-12-14T15:51:57;5.80;99.90
16511;DHT22;8368;48.772;8.754;2023-12-14T15:54:23;5.80;99.90
16511;DHT22;8368;48.772;8.754;2023-12-14T15:56:48;5.80;99.90